This is the latest recevied weather packets stored in our database for station/object KC9DNQ-3. If no packets are shown the sender has not sent any weather packets the latest 10 day(s).
| Time | Temp. | Humidity | Pressure | Rain* | Wind** | Luminosity | Snow |
|---|---|---|---|---|---|---|---|
| 1777484409 | 14.44° C | 59% | 1012.8 hPa | 0 mm | - | 297 W/m² | - |
| 1777484109 | 14.44° C | 62% | 1012.8 hPa | 0 mm | - | 355 W/m² | - |
| 1777483818 | 13.89° C | 59% | 1012.8 hPa | 0 mm | - | 355 W/m² | - |
| 1777483509 | 13.89° C | 58% | 1012.8 hPa | 0 mm | - | 369 W/m² | - |
| 1777483209 | 14.44° C | 59% | 1012.8 hPa | 0 mm | - | 294 W/m² | - |
| 1777482909 | 14.44° C | 61% | 1012.8 hPa | 0 mm | - | 1072 W/m² | - |
| 1777482609 | 14.44° C | 58% | 1012.9 hPa | 0 mm | - | 341 W/m² | - |
| 1777482308 | 15° C | 61% | 1012.9 hPa | 0 mm | - | 186 W/m² | - |
| 1777482010 | 15° C | 59% | 1012.8 hPa | 0 mm | - | 229 W/m² | - |
| 1777481709 | 15° C | 62% | 1012.8 hPa | 0 mm | - | 1051 W/m² | - |
| 1777481409 | 15° C | 57% | 1012.8 hPa | 0 mm | - | 309 W/m² | - |
| 1777481110 | 15° C | 57% | 1012.8 hPa | 0 mm | - | 339 W/m² | - |
| 1777480809 | 15° C | 60% | 1012.8 hPa | 0 mm | - | 953 W/m² | - |
| 1777480510 | 14.44° C | 62% | 1012.8 hPa | 0 mm | - | 257 W/m² | - |
| 1777480210 | 14.44° C | 59% | 1012.8 hPa | 0 mm | - | 257 W/m² | - |
| 1777479909 | 14.44° C | 58% | 1012.8 hPa | 0 mm | - | 253 W/m² | - |
| 1777479609 | 15° C | 61% | 1012.9 hPa | 0 mm | - | 392 W/m² | - |
| 1777479308 | 15° C | 58% | 1012.9 hPa | 0 mm | - | 362 W/m² | - |
| 1777479009 | 15° C | 58% | 1012.8 hPa | 0 mm | - | 471 W/m² | - |
| 1777478709 | 15° C | 59% | 1012.8 hPa | 0 mm | - | 918 W/m² | - |
| 1777478409 | 15° C | 61% | 1012.8 hPa | 0 mm | - | 872 W/m² | - |
| 1777478109 | 15° C | 59% | 1012.8 hPa | 0 mm | - | 334 W/m² | - |
| 1777477809 | 14.44° C | 61% | 1012.8 hPa | 0 mm | - | 858 W/m² | - |
| 1777477510 | 14.44° C | 59% | 1012.8 hPa | 0 mm | - | 401 W/m² | - |
| 1777477209 | 14.44° C | 58% | 1012.8 hPa | 0 mm | - | 281 W/m² | - |
* Rain latest hour (hover to see other rain measurements)
** Current wind speed in m/s (hover to see current wind gust speed)